Terminal Aerodrome Forecast
Issued by NWS Northern Indiana

Home | Current Version | Previous Version | Graphics & Text | Print | Product List | Glossary On
Versions: 1 2 3 4 5 6 7 8 9 10 11 12 13 14 15 16 17 18 19
113
FTUS43 KIWX 182327
TAFFWA
TAF
KFWA 182327Z 1900/1924 09005KT P6SM FEW035 BKN250
     FM190700 08003KT 4SM BR BKN020
     FM191100 10004KT 2SM -SHRA BR OVC008
     FM191600 VRB04KT 5SM BR VCSH OVC015
     FM192100 14006KT P6SM BKN035=

USA.gov is the U.S. government's official web portal to all federal, state and local government web resources and services.